sensor_id;sensor_type;location;lat;lon;timestamp;P1;durP1;ratioP1;P2;durP2;ratioP2
30370;SDS011;17164;48.590;11.410;2023-06-10T00:02:06;8.97;;;6.70;;
30370;SDS011;17164;48.590;11.410;2023-06-10T00:04:32;8.57;;;6.77;;
30370;SDS011;17164;48.590;11.410;2023-06-10T00:06:58;8.33;;;6.63;;
30370;SDS011;17164;48.590;11.410;2023-06-10T00:09:24;7.60;;;6.57;;
30370;SDS011;17164;48.590;11.410;2023-06-10T00:11:50;8.80;;;7.00;;
30370;SDS011;17164;48.590;11.410;2023-06-10T00:14:16;8.47;;;6.40;;
30370;SDS011;17164;48.590;11.410;2023-06-10T00:16:42;14.77;;;6.80;;
30370;SDS011;17164;48.590;11.410;2023-06-10T00:19:09;8.27;;;7.10;;
30370;SDS011;17164;48.590;11.410;2023-06-10T00:21:38;13.90;;;7.30;;
30370;SDS011;17164;48.590;11.410;2023-06-10T00:24:10;8.87;;;6.77;;
30370;SDS011;17164;48.590;11.410;2023-06-10T00:26:37;11.27;;;7.13;;
30370;SDS011;17164;48.590;11.410;2023-06-10T00:29:03;9.67;;;7.27;;
30370;SDS011;17164;48.590;11.410;2023-06-10T00:31:29;8.50;;;7.37;;
30370;SDS011;17164;48.590;11.410;2023-06-10T00:33:55;8.43;;;6.80;;
30370;SDS011;17164;48.590;11.410;2023-06-10T00:36:20;8.80;;;7.30;;
30370;SDS011;17164;48.590;11.410;2023-06-10T00:38:46;8.73;;;6.83;;
30370;SDS011;17164;48.590;11.410;2023-06-10T00:41:12;9.20;;;6.67;;
30370;SDS011;17164;48.590;11.410;2023-06-10T00:43:37;9.07;;;7.13;;
30370;SDS011;17164;48.590;11.410;2023-06-10T00:46:03;9.23;;;7.00;;
30370;SDS011;17164;48.590;11.410;2023-06-10T00:48:29;7.90;;;6.60;;
30370;SDS011;17164;48.590;11.410;2023-06-10T00:50:54;8.00;;;6.37;;
30370;SDS011;17164;48.590;11.410;2023-06-10T00:53:21;9.17;;;6.90;;
30370;SDS011;17164;48.590;11.410;2023-06-10T00:55:47;8.77;;;6.90;;
30370;SDS011;17164;48.590;11.410;2023-06-10T00:58:13;9.40;;;6.83;;
30370;SDS011;17164;48.590;11.410;2023-06-10T01:00:40;8.43;;;6.77;;
30370;SDS011;17164;48.590;11.410;2023-06-10T01:03:06;8.63;;;6.77;;
30370;SDS011;17164;48.590;11.410;2023-06-10T01:05:33;8.53;;;6.97;;
30370;SDS011;17164;48.590;11.410;2023-06-10T01:08:03;10.40;;;6.77;;
30370;SDS011;17164;48.590;11.410;2023-06-10T01:10:50;8.43;;;7.05;;
30370;SDS011;17164;48.590;11.410;2023-06-10T01:13:20;9.90;;;7.30;;
30370;SDS011;17164;48.590;11.410;2023-06-10T01:15:49;7.63;;;6.20;;
30370;SDS011;17164;48.590;11.410;2023-06-10T01:18:16;7.03;;;6.03;;
30370;SDS011;17164;48.590;11.410;2023-06-10T01:20:42;9.33;;;6.93;;
30370;SDS011;17164;48.590;11.410;2023-06-10T01:23:09;8.97;;;6.40;;
30370;SDS011;17164;48.590;11.410;2023-06-10T01:25:39;7.63;;;6.20;;
30370;SDS011;17164;48.590;11.410;2023-06-10T01:33:28;8.23;;;6.70;;
30370;SDS011;17164;48.590;11.410;2023-06-10T01:35:57;10.80;;;6.17;;
30370;SDS011;17164;48.590;11.410;2023-06-10T01:38:24;8.10;;;6.57;;
30370;SDS011;17164;48.590;11.410;2023-06-10T01:40:55;6.47;;;5.73;;
30370;SDS011;17164;48.590;11.410;2023-06-10T01:43:21;8.87;;;6.30;;
30370;SDS011;17164;48.590;11.410;2023-06-10T01:45:47;10.30;;;6.50;;
30370;SDS011;17164;48.590;11.410;2023-06-10T01:48:12;11.37;;;7.17;;
30370;SDS011;17164;48.590;11.410;2023-06-10T01:50:38;8.10;;;6.37;;
30370;SDS011;17164;48.590;11.410;2023-06-10T01:53:04;9.77;;;7.50;;
30370;SDS011;17164;48.590;11.410;2023-06-10T01:55:33;8.10;;;6.33;;
30370;SDS011;17164;48.590;11.410;2023-06-10T01:57:58;9.43;;;7.27;;
30370;SDS011;17164;48.590;11.410;2023-06-10T02:00:24;8.77;;;6.40;;
30370;SDS011;17164;48.590;11.410;2023-06-10T02:02:49;8.27;;;6.60;;
30370;SDS011;17164;48.590;11.410;2023-06-10T02:05:15;9.23;;;6.93;;
30370;SDS011;17164;48.590;11.410;2023-06-10T02:07:41;8.53;;;6.30;;
30370;SDS011;17164;48.590;11.410;2023-06-10T02:10:07;11.30;;;6.90;;
30370;SDS011;17164;48.590;11.410;2023-06-10T02:12:33;9.03;;;6.70;;
30370;SDS011;17164;48.590;11.410;2023-06-10T02:14:58;9.07;;;6.90;;
30370;SDS011;17164;48.590;11.410;2023-06-10T02:17:24;8.83;;;6.93;;
30370;SDS011;17164;48.590;11.410;2023-06-10T02:19:50;9.83;;;7.53;;
30370;SDS011;17164;48.590;11.410;2023-06-10T02:22:21;10.43;;;6.40;;
30370;SDS011;17164;48.590;11.410;2023-06-10T02:24:48;7.83;;;6.80;;
30370;SDS011;17164;48.590;11.410;2023-06-10T02:27:14;10.30;;;7.07;;
30370;SDS011;17164;48.590;11.410;2023-06-10T02:29:41;8.37;;;7.27;;
30370;SDS011;17164;48.590;11.410;2023-06-10T02:32:07;8.90;;;6.87;;
30370;SDS011;17164;48.590;11.410;2023-06-10T02:34:33;10.70;;;7.43;;
30370;SDS011;17164;48.590;11.410;2023-06-10T02:36:59;8.40;;;7.20;;
30370;SDS011;17164;48.590;11.410;2023-06-10T02:39:25;8.10;;;6.80;;
30370;SDS011;17164;48.590;11.410;2023-06-10T02:41:51;10.10;;;7.10;;
30370;SDS011;17164;48.590;11.410;2023-06-10T02:44:20;9.00;;;6.97;;
30370;SDS011;17164;48.590;11.410;2023-06-10T02:46:45;9.80;;;6.80;;
30370;SDS011;17164;48.590;11.410;2023-06-10T02:49:11;10.20;;;6.87;;
30370;SDS011;17164;48.590;11.410;2023-06-10T02:51:37;9.00;;;6.93;;
30370;SDS011;17164;48.590;11.410;2023-06-10T02:54:03;12.00;;;7.27;;
30370;SDS011;17164;48.590;11.410;2023-06-10T02:56:29;8.80;;;6.87;;
30370;SDS011;17164;48.590;11.410;2023-06-10T02:58:56;10.33;;;6.97;;
30370;SDS011;17164;48.590;11.410;2023-06-10T03:01:22;8.60;;;7.10;;
30370;SDS011;17164;48.590;11.410;2023-06-10T03:03:48;11.70;;;7.27;;
30370;SDS011;17164;48.590;11.410;2023-06-10T03:06:15;9.57;;;7.00;;
30370;SDS011;17164;48.590;11.410;2023-06-10T03:08:41;9.73;;;6.33;;
30370;SDS011;17164;48.590;11.410;2023-06-10T03:11:07;11.33;;;7.70;;
30370;SDS011;17164;48.590;11.410;2023-06-10T03:13:33;9.70;;;6.80;;
30370;SDS011;17164;48.590;11.410;2023-06-10T03:15:59;9.13;;;7.20;;
30370;SDS011;17164;48.590;11.410;2023-06-10T03:18:27;8.30;;;7.10;;
30370;SDS011;17164;48.590;11.410;2023-06-10T03:20:54;10.10;;;6.77;;
30370;SDS011;17164;48.590;11.410;2023-06-10T03:23:20;9.73;;;7.40;;
30370;SDS011;17164;48.590;11.410;2023-06-10T03:25:46;9.40;;;7.47;;
30370;SDS011;17164;48.590;11.410;2023-06-10T03:28:12;16.60;;;8.70;;
30370;SDS011;17164;48.590;11.410;2023-06-10T03:30:37;9.60;;;7.47;;
30370;SDS011;17164;48.590;11.410;2023-06-10T03:33:03;11.90;;;7.27;;
30370;SDS011;17164;48.590;11.410;2023-06-10T03:35:29;11.17;;;7.03;;
30370;SDS011;17164;48.590;11.410;2023-06-10T03:37:54;10.50;;;7.00;;
30370;SDS011;17164;48.590;11.410;2023-06-10T03:40:20;8.30;;;6.83;;
30370;SDS011;17164;48.590;11.410;2023-06-10T03:42:46;10.23;;;6.80;;
30370;SDS011;17164;48.590;11.410;2023-06-10T03:45:11;9.20;;;7.60;;
30370;SDS011;17164;48.590;11.410;2023-06-10T03:47:37;9.00;;;7.23;;
30370;SDS011;17164;48.590;11.410;2023-06-10T03:50:05;18.13;;;7.87;;
30370;SDS011;17164;48.590;11.410;2023-06-10T03:52:33;10.63;;;7.07;;
30370;SDS011;17164;48.590;11.410;2023-06-10T03:54:58;8.70;;;7.07;;
30370;SDS011;17164;48.590;11.410;2023-06-10T03:57:24;9.50;;;7.70;;
30370;SDS011;17164;48.590;11.410;2023-06-10T03:59:51;10.90;;;6.97;;
30370;SDS011;17164;48.590;11.410;2023-06-10T04:02:16;8.27;;;6.87;;
30370;SDS011;17164;48.590;11.410;2023-06-10T04:04:42;10.87;;;7.37;;
30370;SDS011;17164;48.590;11.410;2023-06-10T04:07:08;8.83;;;7.17;;
30370;SDS011;17164;48.590;11.410;2023-06-10T04:09:34;14.87;;;7.53;;
30370;SDS011;17164;48.590;11.410;2023-06-10T04:12:00;9.43;;;7.27;;
30370;SDS011;17164;48.590;11.410;2023-06-10T04:14:26;10.37;;;7.87;;
30370;SDS011;17164;48.590;11.410;2023-06-10T04:16:52;9.97;;;7.87;;
30370;SDS011;17164;48.590;11.410;2023-06-10T04:19:18;9.47;;;7.67;;
30370;SDS011;17164;48.590;11.410;2023-06-10T04:21:43;9.17;;;7.53;;
30370;SDS011;17164;48.590;11.410;2023-06-10T04:24:09;11.40;;;8.53;;
30370;SDS011;17164;48.590;11.410;2023-06-10T04:26:35;11.83;;;8.23;;
30370;SDS011;17164;48.590;11.410;2023-06-10T04:29:01;9.90;;;7.63;;
30370;SDS011;17164;48.590;11.410;2023-06-10T04:31:27;11.80;;;8.20;;
30370;SDS011;17164;48.590;11.410;2023-06-10T04:33:53;11.23;;;8.57;;
30370;SDS011;17164;48.590;11.410;2023-06-10T04:36:19;9.73;;;7.97;;
30370;SDS011;17164;48.590;11.410;2023-06-10T04:38:45;12.47;;;8.37;;
30370;SDS011;17164;48.590;11.410;2023-06-10T04:41:11;10.77;;;7.57;;
30370;SDS011;17164;48.590;11.410;2023-06-10T04:43:37;9.47;;;7.67;;
30370;SDS011;17164;48.590;11.410;2023-06-10T04:46:03;13.00;;;8.30;;
30370;SDS011;17164;48.590;11.410;2023-06-10T04:48:29;11.40;;;8.90;;
30370;SDS011;17164;48.590;11.410;2023-06-10T04:50:54;10.13;;;8.10;;
30370;SDS011;17164;48.590;11.410;2023-06-10T04:53:21;11.43;;;8.17;;
30370;SDS011;17164;48.590;11.410;2023-06-10T04:55:47;9.50;;;7.97;;
30370;SDS011;17164;48.590;11.410;2023-06-10T04:58:13;10.53;;;8.20;;
30370;SDS011;17164;48.590;11.410;2023-06-10T05:00:39;10.37;;;8.47;;
30370;SDS011;17164;48.590;11.410;2023-06-10T05:03:05;12.07;;;8.10;;
30370;SDS011;17164;48.590;11.410;2023-06-10T05:05:30;11.67;;;8.63;;
30370;SDS011;17164;48.590;11.410;2023-06-10T05:07:56;11.07;;;8.67;;
30370;SDS011;17164;48.590;11.410;2023-06-10T05:10:22;11.43;;;8.83;;
30370;SDS011;17164;48.590;11.410;2023-06-10T05:12:48;10.27;;;8.00;;
30370;SDS011;17164;48.590;11.410;2023-06-10T05:15:13;10.33;;;7.50;;
30370;SDS011;17164;48.590;11.410;2023-06-10T05:17:39;12.10;;;8.40;;
30370;SDS011;17164;48.590;11.410;2023-06-10T05:20:05;9.93;;;7.87;;
30370;SDS011;17164;48.590;11.410;2023-06-10T05:22:31;10.27;;;7.90;;
30370;SDS011;17164;48.590;11.410;2023-06-10T05:24:57;9.53;;;7.73;;
30370;SDS011;17164;48.590;11.410;2023-06-10T05:27:22;9.63;;;7.47;;
30370;SDS011;17164;48.590;11.410;2023-06-10T05:29:48;11.03;;;8.33;;
30370;SDS011;17164;48.590;11.410;2023-06-10T05:32:14;10.30;;;7.73;;
30370;SDS011;17164;48.590;11.410;2023-06-10T05:34:40;10.63;;;7.80;;
30370;SDS011;17164;48.590;11.410;2023-06-10T05:37:05;10.70;;;7.20;;
30370;SDS011;17164;48.590;11.410;2023-06-10T05:39:31;10.60;;;7.50;;
30370;SDS011;17164;48.590;11.410;2023-06-10T05:41:57;8.93;;;6.53;;
30370;SDS011;17164;48.590;11.410;2023-06-10T05:44:24;10.50;;;6.87;;
30370;SDS011;17164;48.590;11.410;2023-06-10T05:46:50;8.03;;;6.40;;
30370;SDS011;17164;48.590;11.410;2023-06-10T05:49:16;9.03;;;6.83;;
30370;SDS011;17164;48.590;11.410;2023-06-10T05:51:41;9.17;;;7.20;;
30370;SDS011;17164;48.590;11.410;2023-06-10T05:54:07;9.93;;;7.70;;
30370;SDS011;17164;48.590;11.410;2023-06-10T05:56:33;8.10;;;7.07;;
30370;SDS011;17164;48.590;11.410;2023-06-10T05:58:59;9.07;;;7.03;;
30370;SDS011;17164;48.590;11.410;2023-06-10T06:01:24;9.20;;;6.80;;
30370;SDS011;17164;48.590;11.410;2023-06-10T06:03:50;9.33;;;7.00;;
30370;SDS011;17164;48.590;11.410;2023-06-10T06:06:15;8.40;;;6.70;;
30370;SDS011;17164;48.590;11.410;2023-06-10T06:08:41;9.50;;;7.00;;
30370;SDS011;17164;48.590;11.410;2023-06-10T06:11:07;8.77;;;6.53;;
30370;SDS011;17164;48.590;11.410;2023-06-10T06:13:32;9.73;;;7.17;;
30370;SDS011;17164;48.590;11.410;2023-06-10T06:15:58;9.43;;;7.47;;
30370;SDS011;17164;48.590;11.410;2023-06-10T06:18:24;9.67;;;7.03;;
30370;SDS011;17164;48.590;11.410;2023-06-10T06:20:49;10.23;;;6.93;;
30370;SDS011;17164;48.590;11.410;2023-06-10T06:23:15;8.27;;;6.37;;
30370;SDS011;17164;48.590;11.410;2023-06-10T06:25:41;8.13;;;6.90;;
30370;SDS011;17164;48.590;11.410;2023-06-10T06:28:06;8.10;;;6.67;;
30370;SDS011;17164;48.590;11.410;2023-06-10T06:30:34;8.90;;;6.73;;
30370;SDS011;17164;48.590;11.410;2023-06-10T06:33:00;8.63;;;6.13;;
30370;SDS011;17164;48.590;11.410;2023-06-10T06:35:26;9.00;;;6.50;;
30370;SDS011;17164;48.590;11.410;2023-06-10T06:37:51;8.70;;;6.27;;
30370;SDS011;17164;48.590;11.410;2023-06-10T06:40:17;7.83;;;6.93;;
30370;SDS011;17164;48.590;11.410;2023-06-10T06:42:42;9.90;;;6.63;;
30370;SDS011;17164;48.590;11.410;2023-06-10T06:45:09;10.20;;;6.47;;
30370;SDS011;17164;48.590;11.410;2023-06-10T06:47:35;7.77;;;6.20;;
30370;SDS011;17164;48.590;11.410;2023-06-10T06:50:01;9.63;;;6.83;;
30370;SDS011;17164;48.590;11.410;2023-06-10T06:52:27;10.17;;;6.70;;
30370;SDS011;17164;48.590;11.410;2023-06-10T06:54:53;10.73;;;5.60;;
30370;SDS011;17164;48.590;11.410;2023-06-10T06:57:19;8.10;;;6.13;;
30370;SDS011;17164;48.590;11.410;2023-06-10T06:59:45;8.77;;;6.33;;
30370;SDS011;17164;48.590;11.410;2023-06-10T07:02:10;10.40;;;6.03;;
30370;SDS011;17164;48.590;11.410;2023-06-10T07:04:36;9.07;;;6.67;;
30370;SDS011;17164;48.590;11.410;2023-06-10T07:07:01;8.43;;;5.87;;
30370;SDS011;17164;48.590;11.410;2023-06-10T07:09:27;10.00;;;6.53;;
30370;SDS011;17164;48.590;11.410;2023-06-10T07:11:53;8.13;;;6.20;;
30370;SDS011;17164;48.590;11.410;2023-06-10T07:14:19;7.13;;;5.70;;
30370;SDS011;17164;48.590;11.410;2023-06-10T07:16:44;8.40;;;6.40;;
30370;SDS011;17164;48.590;11.410;2023-06-10T07:19:11;8.03;;;6.37;;
30370;SDS011;17164;48.590;11.410;2023-06-10T07:21:36;7.27;;;5.80;;
30370;SDS011;17164;48.590;11.410;2023-06-10T07:24:03;9.83;;;6.50;;
30370;SDS011;17164;48.590;11.410;2023-06-10T07:26:28;9.00;;;6.63;;
30370;SDS011;17164;48.590;11.410;2023-06-10T07:28:54;8.90;;;6.57;;
30370;SDS011;17164;48.590;11.410;2023-06-10T07:31:20;7.17;;;5.80;;
30370;SDS011;17164;48.590;11.410;2023-06-10T07:33:46;8.30;;;6.73;;
30370;SDS011;17164;48.590;11.410;2023-06-10T07:36:12;7.30;;;6.00;;
30370;SDS011;17164;48.590;11.410;2023-06-10T07:38:38;8.93;;;5.73;;
30370;SDS011;17164;48.590;11.410;2023-06-10T07:41:03;6.90;;;5.77;;
30370;SDS011;17164;48.590;11.410;2023-06-10T07:43:29;7.00;;;5.67;;
30370;SDS011;17164;48.590;11.410;2023-06-10T07:45:55;6.90;;;5.50;;
30370;SDS011;17164;48.590;11.410;2023-06-10T07:48:20;8.07;;;5.73;;
30370;SDS011;17164;48.590;11.410;2023-06-10T07:50:46;10.77;;;5.97;;
30370;SDS011;17164;48.590;11.410;2023-06-10T07:53:12;8.77;;;5.70;;
30370;SDS011;17164;48.590;11.410;2023-06-10T07:55:37;7.63;;;6.13;;
30370;SDS011;17164;48.590;11.410;2023-06-10T07:58:03;6.40;;;5.13;;
30370;SDS011;17164;48.590;11.410;2023-06-10T08:00:28;6.80;;;5.30;;
30370;SDS011;17164;48.590;11.410;2023-06-10T08:02:54;5.40;;;4.40;;
30370;SDS011;17164;48.590;11.410;2023-06-10T08:05:20;6.30;;;5.00;;
30370;SDS011;17164;48.590;11.410;2023-06-10T08:07:46;6.33;;;4.83;;
30370;SDS011;17164;48.590;11.410;2023-06-10T08:10:11;6.40;;;4.93;;
30370;SDS011;17164;48.590;11.410;2023-06-10T08:12:37;8.17;;;5.10;;
30370;SDS011;17164;48.590;11.410;2023-06-10T08:15:03;6.63;;;5.60;;
30370;SDS011;17164;48.590;11.410;2023-06-10T08:17:32;6.23;;;4.97;;
30370;SDS011;17164;48.590;11.410;2023-06-10T08:19:57;6.00;;;4.83;;
30370;SDS011;17164;48.590;11.410;2023-06-10T08:22:23;7.97;;;5.03;;
30370;SDS011;17164;48.590;11.410;2023-06-10T08:24:49;7.00;;;5.50;;
30370;SDS011;17164;48.590;11.410;2023-06-10T08:27:14;7.40;;;5.20;;
30370;SDS011;17164;48.590;11.410;2023-06-10T08:29:40;6.03;;;4.80;;
30370;SDS011;17164;48.590;11.410;2023-06-10T08:32:06;6.63;;;4.93;;
30370;SDS011;17164;48.590;11.410;2023-06-10T08:34:35;5.57;;;4.97;;
30370;SDS011;17164;48.590;11.410;2023-06-10T08:37:01;7.70;;;5.47;;
30370;SDS011;17164;48.590;11.410;2023-06-10T08:39:27;6.47;;;5.03;;
30370;SDS011;17164;48.590;11.410;2023-06-10T08:42:00;6.63;;;5.00;;
30370;SDS011;17164;48.590;11.410;2023-06-10T08:44:35;5.70;;;5.00;;
30370;SDS011;17164;48.590;11.410;2023-06-10T08:47:06;6.60;;;5.30;;
30370;SDS011;17164;48.590;11.410;2023-06-10T08:49:36;8.47;;;5.03;;
30370;SDS011;17164;48.590;11.410;2023-06-10T08:52:06;8.70;;;5.50;;
30370;SDS011;17164;48.590;11.410;2023-06-10T08:54:32;6.23;;;5.37;;
30370;SDS011;17164;48.590;11.410;2023-06-10T08:57:03;11.00;;;5.40;;
30370;SDS011;17164;48.590;11.410;2023-06-10T08:59:33;6.80;;;5.23;;
30370;SDS011;17164;48.590;11.410;2023-06-10T09:01:59;7.30;;;5.27;;
30370;SDS011;17164;48.590;11.410;2023-06-10T09:04:27;6.60;;;5.30;;
30370;SDS011;17164;48.590;11.410;2023-06-10T09:06:53;7.87;;;5.40;;
30370;SDS011;17164;48.590;11.410;2023-06-10T09:09:20;7.70;;;5.23;;
30370;SDS011;17164;48.590;11.410;2023-06-10T09:11:47;6.10;;;4.80;;
30370;SDS011;17164;48.590;11.410;2023-06-10T09:14:13;7.03;;;5.37;;
30370;SDS011;17164;48.590;11.410;2023-06-10T09:16:39;6.80;;;5.17;;
30370;SDS011;17164;48.590;11.410;2023-06-10T09:19:06;5.67;;;4.40;;
30370;SDS011;17164;48.590;11.410;2023-06-10T09:21:34;5.13;;;4.33;;
30370;SDS011;17164;48.590;11.410;2023-06-10T09:24:03;5.77;;;4.23;;
30370;SDS011;17164;48.590;11.410;2023-06-10T09:26:30;7.97;;;5.00;;
30370;SDS011;17164;48.590;11.410;2023-06-10T09:29:05;7.63;;;5.40;;
30370;SDS011;17164;48.590;11.410;2023-06-10T09:31:37;7.53;;;4.87;;
30370;SDS011;17164;48.590;11.410;2023-06-10T09:34:07;8.20;;;5.57;;
30370;SDS011;17164;48.590;11.410;2023-06-10T09:36:36;6.13;;;5.30;;
30370;SDS011;17164;48.590;11.410;2023-06-10T09:39:03;5.57;;;4.93;;
30370;SDS011;17164;48.590;11.410;2023-06-10T09:41:32;7.07;;;5.33;;
30370;SDS011;17164;48.590;11.410;2023-06-10T09:44:09;6.63;;;5.20;;
30370;SDS011;17164;48.590;11.410;2023-06-10T09:46:40;7.30;;;4.47;;
30370;SDS011;17164;48.590;11.410;2023-06-10T09:49:06;8.30;;;4.67;;
30370;SDS011;17164;48.590;11.410;2023-06-10T09:51:32;6.27;;;4.67;;
30370;SDS011;17164;48.590;11.410;2023-06-10T09:53:58;5.23;;;4.27;;
30370;SDS011;17164;48.590;11.410;2023-06-10T09:56:33;5.67;;;4.10;;
30370;SDS011;17164;48.590;11.410;2023-06-10T09:59:00;5.00;;;3.97;;
30370;SDS011;17164;48.590;11.410;2023-06-10T10:01:26;6.07;;;3.83;;
30370;SDS011;17164;48.590;11.410;2023-06-10T10:03:52;5.67;;;3.93;;
30370;SDS011;17164;48.590;11.410;2023-06-10T10:06:18;5.70;;;4.23;;
30370;SDS011;17164;48.590;11.410;2023-06-10T10:08:45;7.10;;;4.43;;
30370;SDS011;17164;48.590;11.410;2023-06-10T10:11:12;5.90;;;4.07;;
30370;SDS011;17164;48.590;11.410;2023-06-10T10:13:39;8.23;;;4.00;;
30370;SDS011;17164;48.590;11.410;2023-06-10T10:16:15;6.47;;;4.50;;
30370;SDS011;17164;48.590;11.410;2023-06-10T10:18:46;5.10;;;3.93;;
30370;SDS011;17164;48.590;11.410;2023-06-10T10:21:27;4.50;;;3.57;;
30370;SDS011;17164;48.590;11.410;2023-06-10T10:24:11;3.80;;;3.40;;
30370;SDS011;17164;48.590;11.410;2023-06-10T10:26:41;5.37;;;3.67;;
30370;SDS011;17164;48.590;11.410;2023-06-10T10:29:10;5.23;;;4.10;;
30370;SDS011;17164;48.590;11.410;2023-06-10T10:31:42;5.33;;;4.07;;
30370;SDS011;17164;48.590;11.410;2023-06-10T10:34:18;5.83;;;3.93;;
30370;SDS011;17164;48.590;11.410;2023-06-10T10:36:52;4.70;;;3.80;;
30370;SDS011;17164;48.590;11.410;2023-06-10T10:39:18;5.87;;;3.73;;
30370;SDS011;17164;48.590;11.410;2023-06-10T10:41:44;5.50;;;3.70;;
30370;SDS011;17164;48.590;11.410;2023-06-10T10:44:11;4.27;;;3.87;;
30370;SDS011;17164;48.590;11.410;2023-06-10T10:46:44;5.13;;;3.70;;
30370;SDS011;17164;48.590;11.410;2023-06-10T10:49:15;5.63;;;4.17;;
30370;SDS011;17164;48.590;11.410;2023-06-10T10:52:14;5.33;;;4.20;;
30370;SDS011;17164;48.590;11.410;2023-06-10T10:54:36;7.30;;;4.00;;
30370;SDS011;17164;48.590;11.410;2023-06-10T10:59:51;4.33;;;3.73;;
30370;SDS011;17164;48.590;11.410;2023-06-10T11:05:09;5.77;;;3.50;;
30370;SDS011;17164;48.590;11.410;2023-06-10T11:07:36;6.23;;;3.67;;
30370;SDS011;17164;48.590;11.410;2023-06-10T11:10:09;4.53;;;3.90;;
30370;SDS011;17164;48.590;11.410;2023-06-10T11:15:32;5.20;;;3.97;;
30370;SDS011;17164;48.590;11.410;2023-06-10T11:31:25;5.83;;;4.00;;
30370;SDS011;17164;48.590;11.410;2023-06-10T11:33:59;5.23;;;3.67;;
30370;SDS011;17164;48.590;11.410;2023-06-10T11:36:27;5.90;;;4.13;;
30370;SDS011;17164;48.590;11.410;2023-06-10T11:38:57;4.97;;;3.73;;
30370;SDS011;17164;48.590;11.410;2023-06-10T11:41:25;4.37;;;3.70;;
30370;SDS011;17164;48.590;11.410;2023-06-10T11:43:54;6.37;;;4.40;;
30370;SDS011;17164;48.590;11.410;2023-06-10T11:46:23;6.10;;;3.90;;
30370;SDS011;17164;48.590;11.410;2023-06-10T11:48:53;4.50;;;3.50;;
30370;SDS011;17164;48.590;11.410;2023-06-10T11:51:20;5.00;;;3.60;;
30370;SDS011;17164;48.590;11.410;2023-06-10T11:53:46;4.50;;;3.57;;
30370;SDS011;17164;48.590;11.410;2023-06-10T11:56:13;4.53;;;3.60;;
30370;SDS011;17164;48.590;11.410;2023-06-10T11:58:44;5.35;;;3.80;;
30370;SDS011;17164;48.590;11.410;2023-06-10T12:01:10;4.03;;;3.60;;
30370;SDS011;17164;48.590;11.410;2023-06-10T12:03:44;4.17;;;3.40;;
30370;SDS011;17164;48.590;11.410;2023-06-10T12:06:10;6.23;;;3.93;;
30370;SDS011;17164;48.590;11.410;2023-06-10T12:08:40;4.70;;;4.03;;
30370;SDS011;17164;48.590;11.410;2023-06-10T12:11:06;4.63;;;3.30;;
30370;SDS011;17164;48.590;11.410;2023-06-10T12:13:32;4.50;;;3.80;;
30370;SDS011;17164;48.590;11.410;2023-06-10T12:16:07;4.50;;;3.80;;
30370;SDS011;17164;48.590;11.410;2023-06-10T12:18:34;7.40;;;3.83;;
30370;SDS011;17164;48.590;11.410;2023-06-10T12:21:00;4.87;;;3.90;;
30370;SDS011;17164;48.590;11.410;2023-06-10T12:23:26;6.10;;;3.83;;
30370;SDS011;17164;48.590;11.410;2023-06-10T12:25:52;8.87;;;3.93;;
30370;SDS011;17164;48.590;11.410;2023-06-10T12:28:25;3.97;;;3.50;;
30370;SDS011;17164;48.590;11.410;2023-06-10T12:30:52;7.00;;;3.33;;
30370;SDS011;17164;48.590;11.410;2023-06-10T12:33:32;4.33;;;3.40;;
30370;SDS011;17164;48.590;11.410;2023-06-10T12:35:58;5.07;;;3.90;;
30370;SDS011;17164;48.590;11.410;2023-06-10T12:38:24;4.20;;;3.43;;
30370;SDS011;17164;48.590;11.410;2023-06-10T12:40:53;4.23;;;3.37;;
30370;SDS011;17164;48.590;11.410;2023-06-10T12:43:22;4.80;;;3.40;;
30370;SDS011;17164;48.590;11.410;2023-06-10T12:45:48;5.33;;;3.37;;
30370;SDS011;17164;48.590;11.410;2023-06-10T12:48:21;4.87;;;3.43;;
30370;SDS011;17164;48.590;11.410;2023-06-10T12:50:54;5.70;;;3.50;;
30370;SDS011;17164;48.590;11.410;2023-06-10T12:53:22;5.77;;;3.70;;
30370;SDS011;17164;48.590;11.410;2023-06-10T12:55:50;3.63;;;3.27;;
30370;SDS011;17164;48.590;11.410;2023-06-10T12:58:16;5.57;;;3.30;;
30370;SDS011;17164;48.590;11.410;2023-06-10T13:00:41;5.27;;;3.50;;
30370;SDS011;17164;48.590;11.410;2023-06-10T13:03:08;4.30;;;3.20;;
30370;SDS011;17164;48.590;11.410;2023-06-10T13:05:37;4.53;;;3.23;;
30370;SDS011;17164;48.590;11.410;2023-06-10T13:08:04;3.80;;;3.03;;
30370;SDS011;17164;48.590;11.410;2023-06-10T13:10:31;3.97;;;2.90;;
30370;SDS011;17164;48.590;11.410;2023-06-10T13:12:56;4.60;;;3.70;;
30370;SDS011;17164;48.590;11.410;2023-06-10T13:15:22;3.57;;;3.20;;
30370;SDS011;17164;48.590;11.410;2023-06-10T13:17:48;3.40;;;2.90;;
30370;SDS011;17164;48.590;11.410;2023-06-10T13:20:16;4.50;;;3.50;;
30370;SDS011;17164;48.590;11.410;2023-06-10T13:22:43;5.53;;;3.30;;
30370;SDS011;17164;48.590;11.410;2023-06-10T13:25:09;4.47;;;3.50;;
30370;SDS011;17164;48.590;11.410;2023-06-10T13:27:37;4.03;;;3.40;;
30370;SDS011;17164;48.590;11.410;2023-06-10T13:30:04;4.90;;;3.50;;
30370;SDS011;17164;48.590;11.410;2023-06-10T13:32:31;4.30;;;3.37;;
30370;SDS011;17164;48.590;11.410;2023-06-10T13:34:56;4.97;;;3.17;;
30370;SDS011;17164;48.590;11.410;2023-06-10T13:37:22;4.83;;;3.70;;
30370;SDS011;17164;48.590;11.410;2023-06-10T13:39:48;4.30;;;3.37;;
30370;SDS011;17164;48.590;11.410;2023-06-10T13:42:18;5.90;;;3.60;;
30370;SDS011;17164;48.590;11.410;2023-06-10T13:44:45;3.90;;;3.30;;
30370;SDS011;17164;48.590;11.410;2023-06-10T13:47:12;4.00;;;3.40;;
30370;SDS011;17164;48.590;11.410;2023-06-10T13:49:38;4.67;;;3.70;;
30370;SDS011;17164;48.590;11.410;2023-06-10T13:52:05;5.13;;;3.63;;
30370;SDS011;17164;48.590;11.410;2023-06-10T13:54:31;6.40;;;3.23;;
30370;SDS011;17164;48.590;11.410;2023-06-10T13:56:57;3.60;;;2.73;;
30370;SDS011;17164;48.590;11.410;2023-06-10T13:59:23;5.27;;;3.50;;
30370;SDS011;17164;48.590;11.410;2023-06-10T14:01:48;3.80;;;3.23;;
30370;SDS011;17164;48.590;11.410;2023-06-10T14:04:14;5.40;;;3.70;;
30370;SDS011;17164;48.590;11.410;2023-06-10T14:06:40;4.13;;;3.30;;
30370;SDS011;17164;48.590;11.410;2023-06-10T14:09:06;4.37;;;3.70;;
30370;SDS011;17164;48.590;11.410;2023-06-10T14:11:31;4.57;;;3.80;;
30370;SDS011;17164;48.590;11.410;2023-06-10T14:13:57;5.43;;;3.20;;
30370;SDS011;17164;48.590;11.410;2023-06-10T14:16:23;4.97;;;3.60;;
30370;SDS011;17164;48.590;11.410;2023-06-10T14:18:49;4.37;;;3.83;;
30370;SDS011;17164;48.590;11.410;2023-06-10T14:21:18;5.00;;;4.00;;
30370;SDS011;17164;48.590;11.410;2023-06-10T14:23:44;4.40;;;3.50;;
30370;SDS011;17164;48.590;11.410;2023-06-10T14:26:10;5.93;;;3.50;;
30370;SDS011;17164;48.590;11.410;2023-06-10T14:28:36;4.80;;;3.20;;
30370;SDS011;17164;48.590;11.410;2023-06-10T14:31:02;5.17;;;2.83;;
30370;SDS011;17164;48.590;11.410;2023-06-10T14:33:27;3.60;;;2.97;;
30370;SDS011;17164;48.590;11.410;2023-06-10T14:35:53;3.77;;;3.20;;
30370;SDS011;17164;48.590;11.410;2023-06-10T14:38:19;3.17;;;2.73;;
30370;SDS011;17164;48.590;11.410;2023-06-10T14:40:45;4.20;;;3.10;;
30370;SDS011;17164;48.590;11.410;2023-06-10T14:43:10;3.83;;;3.03;;
30370;SDS011;17164;48.590;11.410;2023-06-10T14:45:36;6.03;;;2.70;;
30370;SDS011;17164;48.590;11.410;2023-06-10T14:48:03;3.60;;;2.77;;
30370;SDS011;17164;48.590;11.410;2023-06-10T14:50:29;5.57;;;3.00;;
30370;SDS011;17164;48.590;11.410;2023-06-10T14:52:55;4.57;;;2.70;;
30370;SDS011;17164;48.590;11.410;2023-06-10T14:55:21;3.50;;;2.80;;
30370;SDS011;17164;48.590;11.410;2023-06-10T14:57:47;4.40;;;3.07;;
30370;SDS011;17164;48.590;11.410;2023-06-10T15:00:14;3.80;;;3.07;;